Time,TemperatureF,DewpointF,PressureIn,WindDirection,WindDirectionDegrees,WindSpeedMPH,WindSpeedGustMPH,Humidity,HourlyPrecipIn,Conditions,Clouds,dailyrainin,SoftwareType,DateUTC
2013-06-01 00:01:00,56.6,52.8,29.50,SW,232,1.0,7.0,87,0.00,,,0.00,WeatherCatV1.15B25,2013-06-01 05:01:00,
2013-06-01 00:06:00,56.6,52.8,29.50,SW,229,0.0,5.0,87,0.00,,,0.00,WeatherCatV1.15B25,2013-06-01 05:06:00,
2013-06-01 00:11:00,56.5,52.7,29.50,NW,309,0.0,3.0,87,0.00,,,0.00,WeatherCatV1.15B25,2013-06-01 05:11:00,
2013-06-01 00:16:00,56.5,53.0,29.50,WNW,282,0.0,3.0,88,0.00,,,0.00,WeatherCatV1.15B25,2013-06-01 05:16:00,
2013-06-01 00:21:00,56.4,52.9,29.50,WSW,250,0.0,4.0,88,0.00,,,0.00,WeatherCatV1.15B25,2013-06-01 05:21:00,
2013-06-01 00:26:00,56.4,52.9,29.51,SSW,202,0.0,3.0,88,0.00,,,0.00,WeatherCatV1.15B25,2013-06-01 05:26:00,
2013-06-01 00:31:00,56.4,52.9,29.51,SSE,156,1.0,3.0,88,0.00,,,0.00,WeatherCatV1.15B25,2013-06-01 05:31:00,
2013-06-01 00:36:00,56.4,52.9,29.50,SSW,208,0.0,4.0,88,0.00,,,0.00,WeatherCatV1.15B25,2013-06-01 05:36:00,
2013-06-01 00:41:00,56.4,53.2,29.50,SSW,199,0.0,7.0,89,0.00,,,0.00,WeatherCatV1.15B25,2013-06-01 05:41:00,
2013-06-01 00:46:00,56.4,53.2,29.50,SSE,164,1.0,3.0,89,0.00,,,0.00,WeatherCatV1.15B25,2013-06-01 05:46:00,
2013-06-01 00:51:00,56.4,53.2,29.50,SE,143,2.0,4.0,89,0.00,,,0.00,WeatherCatV1.15B25,2013-06-01 05:51:00,
2013-06-01 00:56:00,56.4,53.5,29.51,SSW,198,0.0,2.0,90,0.00,,,0.00,WeatherCatV1.15B25,2013-06-01 05:56:00,
2013-06-01 01:01:00,56.4,53.5,29.50,SSE,167,0.0,2.0,90,0.00,,,0.00,WeatherCatV1.15B25,2013-06-01 06:01:00,
2013-06-01 01:06:00,56.4,53.5,29.50,SSE,160,0.0,4.0,90,0.00,,,0.00,WeatherCatV1.15B25,2013-06-01 06:06:00,
2013-06-01 01:11:00,56.4,53.5,29.50,SE,144,0.0,3.0,90,0.00,,,0.00,WeatherCatV1.15B25,2013-06-01 06:11:00,
2013-06-01 01:16:00,56.5,53.6,29.50,SE,143,2.0,4.0,90,0.00,,,0.00,WeatherCatV1.15B25,2013-06-01 06:16:00,
2013-06-01 01:21:00,56.5,53.6,29.50,South,174,0.0,2.0,90,0.00,,,0.00,WeatherCatV1.15B25,2013-06-01 06:21:00,
2013-06-01 01:26:00,56.5,53.6,29.50,SSE,151,6.0,6.0,90,0.00,,,0.00,WeatherCatV1.15B25,2013-06-01 06:26:00,
2013-06-01 01:31:00,56.5,53.6,29.50,SSE,163,0.0,3.0,90,0.00,,,0.00,WeatherCatV1.15B25,2013-06-01 06:31:00,
2013-06-01 01:36:00,56.6,54.0,29.50,SSE,166,0.0,2.0,91,0.00,,,0.00,WeatherCatV1.15B25,2013-06-01 06:36:00,
2013-06-01 01:41:00,56.6,54.0,29.50,SSE,154,1.0,1.0,91,0.00,,,0.00,WeatherCatV1.15B25,2013-06-01 06:41:00,
2013-06-01 01:46:00,56.6,54.0,29.50,SSE,153,0.0,0.0,91,0.00,,,0.00,WeatherCatV1.15B25,2013-06-01 06:46:00,
2013-06-01 01:51:00,56.7,54.1,29.50,SE,133,1.0,1.0,91,0.00,,,0.00,WeatherCatV1.15B25,2013-06-01 06:51:00,
2013-06-01 01:56:00,56.7,54.1,29.50,SSE,149,0.0,5.0,91,0.00,,,0.00,WeatherCatV1.15B25,2013-06-01 06:56:00,
2013-06-01 02:01:00,56.7,54.1,29.50,SSE,149,1.0,3.0,91,0.00,,,0.00,WeatherCatV1.15B25,2013-06-01 07:01:00,
2013-06-01 02:06:00,56.7,54.1,29.50,SE,142,0.0,4.0,91,0.00,,,0.00,WeatherCatV1.15B25,2013-06-01 07:06:00,
2013-06-01 02:11:00,56.7,54.1,29.50,South,180,0.0,2.0,91,0.00,,,0.00,WeatherCatV1.15B25,2013-06-01 07:11:00,
2013-06-01 02:16:00,56.8,54.2,29.50,South,180,0.0,2.0,91,0.00,,,0.00,WeatherCatV1.15B25,2013-06-01 07:16:00,
2013-06-01 02:21:00,56.8,54.5,29.50,SSW,198,1.0,1.0,92,0.00,,,0.00,WeatherCatV1.15B25,2013-06-01 07:21:00,
2013-06-01 02:26:00,56.9,54.6,29.50,South,191,1.0,5.0,92,0.00,,,0.00,WeatherCatV1.15B25,2013-06-01 07:26:00,
2013-06-01 02:31:00,56.9,54.6,29.50,South,179,0.0,2.0,92,0.00,,,0.00,WeatherCatV1.15B25,2013-06-01 07:31:00,
2013-06-01 02:36:00,57.0,54.7,29.50,SE,145,0.0,2.0,92,0.00,,,0.00,WeatherCatV1.15B25,2013-06-01 07:36:00,
2013-06-01 02:41:00,57.0,55.0,29.50,SE,145,1.0,3.0,93,0.00,,,0.00,WeatherCatV1.15B25,2013-06-01 07:41:00,
2013-06-01 02:46:00,57.1,55.1,29.49,SSE,148,0.0,4.0,93,0.00,,,0.00,WeatherCatV1.15B25,2013-06-01 07:46:00,
2013-06-01 02:51:00,57.2,55.2,29.49,SE,138,0.0,1.0,93,0.00,,,0.00,WeatherCatV1.15B25,2013-06-01 07:51:00,
2013-06-01 02:56:00,57.4,55.7,29.49,SE,138,0.0,1.0,94,0.00,,,0.00,WeatherCatV1.15B25,2013-06-01 07:56:00,
2013-06-01 03:01:00,57.5,55.8,29.49,SE,138,0.0,2.0,94,0.00,,,0.00,WeatherCatV1.15B25,2013-06-01 08:01:00,
2013-06-01 03:06:00,57.7,56.3,29.49,WNW,301,0.0,3.0,95,0.00,,,0.00,WeatherCatV1.15B25,2013-06-01 08:06:00,
2013-06-01 03:11:00,58.0,56.6,29.49,WNW,301,1.0,2.0,95,0.00,,,0.00,WeatherCatV1.15B25,2013-06-01 08:11:00,
2013-06-01 03:16:00,58.2,56.8,29.49,NW,309,0.0,3.0,95,0.00,,,0.00,WeatherCatV1.15B25,2013-06-01 08:16:00,
2013-06-01 03:21:00,58.4,56.7,29.49,NW,317,0.0,3.0,94,0.00,,,0.00,WeatherCatV1.15B25,2013-06-01 08:21:00,
2013-06-01 03:26:00,58.5,56.8,29.48,West,270,1.0,3.0,94,0.00,,,0.00,WeatherCatV1.15B25,2013-06-01 08:26:00,
2013-06-01 03:31:00,58.6,56.9,29.48,West,277,0.0,3.0,94,0.00,,,0.00,WeatherCatV1.15B25,2013-06-01 08:31:00,
2013-06-01 03:36:00,58.6,56.9,29.48,WNW,284,0.0,3.0,94,0.00,,,0.00,WeatherCatV1.15B25,2013-06-01 08:36:00,
2013-06-01 03:41:00,58.6,56.9,29.48,WNW,293,1.0,4.0,94,0.00,,,0.00,WeatherCatV1.15B25,2013-06-01 08:41:00,
2013-06-01 03:46:00,58.6,56.9,29.48,WNW,289,0.0,4.0,94,0.00,,,0.00,WeatherCatV1.15B25,2013-06-01 08:46:00,
2013-06-01 03:51:00,58.6,57.2,29.48,WNW,291,0.0,2.0,95,0.00,,,0.00,WeatherCatV1.15B25,2013-06-01 08:51:00,
2013-06-01 03:56:00,58.5,57.1,29.48,WNW,293,2.0,5.0,95,0.00,,,0.00,WeatherCatV1.15B25,2013-06-01 08:56:00,
2013-06-01 04:01:00,58.5,57.4,29.48,WNW,292,1.0,4.0,96,0.00,,,0.00,WeatherCatV1.15B25,2013-06-01 09:01:00,
2013-06-01 04:06:00,58.5,57.4,29.48,WNW,293,1.0,5.0,96,0.00,,,0.00,WeatherCatV1.15B25,2013-06-01 09:06:00,
2013-06-01 04:11:00,58.5,57.4,29.49,WNW,300,0.0,2.0,96,0.00,,,0.00,WeatherCatV1.15B25,2013-06-01 09:11:00,
2013-06-01 04:16:00,58.5,57.4,29.49,WNW,303,4.0,4.0,96,0.00,,,0.00,WeatherCatV1.15B25,2013-06-01 09:16:00,
2013-06-01 04:21:00,58.5,57.4,29.49,WNW,283,1.0,3.0,96,0.00,,,0.00,WeatherCatV1.15B25,2013-06-01 09:21:00,
2013-06-01 04:26:00,58.5,57.4,29.49,WNW,286,0.0,4.0,96,0.00,,,0.01,WeatherCatV1.15B25,2013-06-01 09:26:00,
2013-06-01 04:31:00,58.4,57.3,29.49,WNW,299,2.0,4.0,96,0.00,,,0.01,WeatherCatV1.15B25,2013-06-01 09:31:00,
2013-06-01 04:36:00,58.4,57.5,29.49,WNW,297,0.0,2.0,97,0.00,,,0.01,WeatherCatV1.15B25,2013-06-01 09:36:00,
2013-06-01 04:41:00,58.4,57.5,29.49,NW,313,1.0,3.0,97,0.00,,,0.01,WeatherCatV1.15B25,2013-06-01 09:41:00,
2013-06-01 04:46:00,58.3,57.5,29.49,WNW,291,2.0,7.0,97,0.00,,,0.01,WeatherCatV1.15B25,2013-06-01 09:46:00,
2013-06-01 04:51:00,58.0,57.2,29.49,WNW,299,3.0,3.0,97,0.00,,,0.01,WeatherCatV1.15B25,2013-06-01 09:51:00,
2013-06-01 04:56:00,57.7,56.6,29.50,NNW,330,0.0,5.0,96,0.00,,,0.01,WeatherCatV1.15B25,2013-06-01 09:56:00,
2013-06-01 05:01:00,57.5,56.4,29.49,WNW,289,1.0,3.0,96,0.00,,,0.01,WeatherCatV1.15B25,2013-06-01 10:01:00,
2013-06-01 05:06:00,57.2,56.1,29.50,WNW,300,0.0,5.0,96,0.00,,,0.01,WeatherCatV1.15B25,2013-06-01 10:06:00,
2013-06-01 05:11:00,57.1,56.3,29.50,WNW,300,2.0,2.0,97,0.00,,,0.01,WeatherCatV1.15B25,2013-06-01 10:11:00,
2013-06-01 05:16:00,56.9,56.1,29.50,WNW,295,0.0,2.0,97,0.00,,,0.01,WeatherCatV1.15B25,2013-06-01 10:16:00,
2013-06-01 05:21:00,56.8,55.7,29.50,WNW,282,5.0,5.0,96,0.00,,,0.01,WeatherCatV1.15B25,2013-06-01 10:21:00,
2013-06-01 05:26:00,56.5,55.4,29.51,WNW,283,2.0,6.0,96,0.00,,,0.01,WeatherCatV1.15B25,2013-06-01 10:26:00,
2013-06-01 05:31:00,56.3,55.2,29.51,West,279,0.0,4.0,96,0.00,,,0.01,WeatherCatV1.15B25,2013-06-01 10:31:00,
2013-06-01 05:36:00,56.2,55.1,29.51,NNW,327,2.0,6.0,96,0.00,,,0.01,WeatherCatV1.15B25,2013-06-01 10:36:00,
2013-06-01 05:41:00,56.1,55.3,29.52,WNW,294,0.0,1.0,97,0.00,,,0.01,WeatherCatV1.15B25,2013-06-01 10:41:00,
2013-06-01 05:46:00,56.0,55.2,29.52,WNW,293,2.0,3.0,97,0.00,,,0.01,WeatherCatV1.15B25,2013-06-01 10:46:00,
2013-06-01 05:51:00,56.0,55.2,29.52,WNW,295,0.0,0.0,97,0.00,,,0.01,WeatherCatV1.15B25,2013-06-01 10:51:00,
2013-06-01 05:56:00,56.0,55.2,29.52,WNW,295,0.0,1.0,97,0.00,,,0.01,WeatherCatV1.15B25,2013-06-01 10:56:00,
2013-06-01 06:01:00,56.0,55.2,29.52,WNW,295,0.0,2.0,97,0.00,,,0.01,WeatherCatV1.15B25,2013-06-01 11:01:00,
2013-06-01 06:06:00,56.0,55.2,29.52,WNW,295,0.0,1.0,97,0.00,,,0.01,WeatherCatV1.15B25,2013-06-01 11:06:00,
2013-06-01 06:11:00,56.0,55.2,29.52,WNW,295,0.0,2.0,97,0.00,,,0.01,WeatherCatV1.15B25,2013-06-01 11:11:00,
2013-06-01 06:16:00,56.0,55.2,29.53,WNW,295,1.0,1.0,97,0.00,,,0.01,WeatherCatV1.15B25,2013-06-01 11:16:00,
2013-06-01 06:21:00,56.0,55.4,29.53,WNW,295,0.0,2.0,98,0.00,,,0.01,WeatherCatV1.15B25,2013-06-01 11:21:00,
2013-06-01 06:26:00,56.1,55.3,29.53,WNW,295,0.0,1.0,97,0.00,,,0.01,WeatherCatV1.15B25,2013-06-01 11:26:00,
2013-06-01 06:31:00,56.2,55.6,29.53,WNW,295,0.0,2.0,98,0.00,,,0.01,WeatherCatV1.15B25,2013-06-01 11:31:00,
2013-06-01 06:36:00,56.3,55.7,29.54,WNW,295,0.0,1.0,98,0.00,,,0.01,WeatherCatV1.15B25,2013-06-01 11:36:00,
2013-06-01 06:41:00,56.3,55.7,29.54,WNW,295,0.0,2.0,98,0.00,,,0.01,WeatherCatV1.15B25,2013-06-01 11:41:00,
2013-06-01 06:46:00,56.4,55.8,29.54,WNW,295,0.0,1.0,98,0.00,,,0.01,WeatherCatV1.15B25,2013-06-01 11:46:00,
2013-06-01 06:51:00,56.5,55.9,29.54,WNW,295,0.0,2.0,98,0.00,,,0.01,WeatherCatV1.15B25,2013-06-01 11:51:00,
2013-06-01 06:56:00,56.6,56.0,29.55,WNW,295,1.0,2.0,98,0.00,,,0.01,WeatherCatV1.15B25,2013-06-01 11:56:00,
2013-06-01 07:01:00,56.7,56.1,29.55,WNW,295,0.0,1.0,98,0.00,,,0.01,WeatherCatV1.15B25,2013-06-01 12:01:00,
2013-06-01 07:06:00,56.8,56.2,29.55,NNE,14,1.0,3.0,98,0.00,,,0.01,WeatherCatV1.15B25,2013-06-01 12:06:00,
2013-06-01 07:11:00,57.0,56.4,29.55,NNE,14,0.0,1.0,98,0.00,,,0.01,WeatherCatV1.15B25,2013-06-01 12:11:00,
2013-06-01 07:16:00,57.1,56.5,29.55,WNW,283,0.0,3.0,98,0.00,,,0.01,WeatherCatV1.15B25,2013-06-01 12:16:00,
2013-06-01 07:21:00,57.3,56.7,29.55,WNW,284,2.0,4.0,98,0.00,,,0.01,WeatherCatV1.15B25,2013-06-01 12:21:00,
2013-06-01 07:26:00,57.5,56.9,29.56,WNW,283,0.0,6.0,98,0.00,,,0.01,WeatherCatV1.15B25,2013-06-01 12:26:00,
2013-06-01 07:31:00,57.7,57.1,29.56,NW,323,2.0,3.0,98,0.00,,,0.01,WeatherCatV1.15B25,2013-06-01 12:31:00,
2013-06-01 07:36:00,57.9,57.3,29.56,WNW,286,1.0,3.0,98,0.00,,,0.01,WeatherCatV1.15B25,2013-06-01 12:36:00,
2013-06-01 07:41:00,58.1,57.5,29.56,WNW,283,3.0,6.0,98,0.00,,,0.01,WeatherCatV1.15B25,2013-06-01 12:41:00,
2013-06-01 07:46:00,58.3,57.7,29.57,WNW,297,1.0,4.0,98,0.00,,,0.01,WeatherCatV1.15B25,2013-06-01 12:46:00,
2013-06-01 07:51:00,58.5,57.9,29.57,NNW,347,0.0,5.0,98,0.00,,,0.01,WeatherCatV1.15B25,2013-06-01 12:51:00,
2013-06-01 07:56:00,58.7,57.8,29.58,NW,320,5.0,5.0,97,0.00,,,0.01,WeatherCatV1.15B25,2013-06-01 12:56:00,
2013-06-01 08:01:00,58.9,58.0,29.58,NW,321,3.0,3.0,97,0.00,,,0.01,WeatherCatV1.15B25,2013-06-01 13:01:00,
2013-06-01 08:06:00,59.0,58.1,29.58,West,260,2.0,3.0,97,0.00,,,0.01,WeatherCatV1.15B25,2013-06-01 13:06:00,
2013-06-01 08:11:00,58.9,57.8,29.59,West,271,2.0,5.0,96,0.00,,,0.01,WeatherCatV1.15B25,2013-06-01 13:11:00,
2013-06-01 08:16:00,58.7,57.8,29.59,WNW,300,2.0,3.0,97,0.00,,,0.02,WeatherCatV1.15B25,2013-06-01 13:16:00,
2013-06-01 08:21:00,58.7,57.8,29.59,NNW,344,0.0,2.0,97,0.00,,,0.02,WeatherCatV1.15B25,2013-06-01 13:21:00,
2013-06-01 08:26:00,58.9,58.3,29.60,NNW,327,1.0,3.0,98,0.00,,,0.02,WeatherCatV1.15B25,2013-06-01 13:26:00,
2013-06-01 08:31:00,58.8,57.9,29.60,NW,326,4.0,7.0,97,0.04,,,0.03,WeatherCatV1.15B25,2013-06-01 13:31:00,
2013-06-01 08:36:00,58.6,57.5,29.60,West,259,3.0,7.0,96,0.23,,,0.05,WeatherCatV1.15B25,2013-06-01 13:36:00,
2013-06-01 08:41:00,58.5,57.4,29.61,WNW,291,3.0,4.0,96,0.08,,,0.05,WeatherCatV1.15B25,2013-06-01 13:41:00,
2013-06-01 08:46:00,58.6,57.5,29.61,WNW,301,2.0,10.0,96,0.05,,,0.05,WeatherCatV1.15B25,2013-06-01 13:46:00,
2013-06-01 08:51:00,58.7,57.6,29.62,WNW,302,5.0,7.0,96,0.00,,,0.05,WeatherCatV1.15B25,2013-06-01 13:51:00,
2013-06-01 08:53:00,58.7,57.6,29.62,North,5,2.0,7.0,96,0.00,,,0.05,WeatherCatV1.15B25,2013-06-01 13:53:00,
2013-06-01 08:58:00,58.5,57.4,29.62,North,10,2.0,10.0,96,0.00,,,0.05,WeatherCatV1.15B25,2013-06-01 13:58:00,
2013-06-01 09:03:00,58.0,56.6,29.63,North,354,0.0,11.0,95,0.00,,,0.05,WeatherCatV1.15B25,2013-06-01 14:03:00,
2013-06-01 09:08:00,57.8,56.7,29.63,NW,324,4.0,9.0,96,0.00,,,0.05,WeatherCatV1.15B25,2013-06-01 14:08:00,
2013-06-01 09:13:00,57.3,55.9,29.64,NW,316,5.0,6.0,95,0.00,,,0.05,WeatherCatV1.15B25,2013-06-01 14:13:00,
2013-06-01 09:18:00,56.8,55.4,29.64,West,276,9.0,13.0,95,0.00,,,0.05,WeatherCatV1.15B25,2013-06-01 14:18:00,
2013-06-01 09:23:00,56.4,55.0,29.65,NW,320,4.0,10.0,95,0.00,,,0.05,WeatherCatV1.15B25,2013-06-01 14:23:00,
2013-06-01 09:28:00,56.1,54.7,29.65,NNE,14,5.0,9.0,95,0.00,,,0.05,WeatherCatV1.15B25,2013-06-01 14:28:00,
2013-06-01 09:33:00,56.2,54.8,29.65,North,0,3.0,9.0,95,0.00,,,0.05,WeatherCatV1.15B25,2013-06-01 14:33:00,
2013-06-01 09:38:00,56.5,55.1,29.66,WNW,297,3.0,15.0,95,0.00,,,0.05,WeatherCatV1.15B25,2013-06-01 14:38:00,
2013-06-01 09:43:00,56.7,55.0,29.66,North,10,7.0,11.0,94,0.00,,,0.05,WeatherCatV1.15B25,2013-06-01 14:43:00,
2013-06-01 09:48:00,56.6,54.6,29.66,NW,320,6.0,10.0,93,0.00,,,0.05,WeatherCatV1.15B25,2013-06-01 14:48:00,
2013-06-01 09:53:00,56.7,54.4,29.67,NW,311,7.0,11.0,92,0.00,,,0.05,WeatherCatV1.15B25,2013-06-01 14:53:00,
2013-06-01 09:58:00,56.9,54.9,29.67,NNW,338,3.0,7.0,93,0.00,,,0.05,WeatherCatV1.15B25,2013-06-01 14:58:00,
2013-06-01 10:03:00,57.1,54.8,29.67,WNW,288,10.0,10.0,92,0.00,,,0.05,WeatherCatV1.15B25,2013-06-01 15:03:00,
2013-06-01 10:08:00,57.0,55.0,29.68,NW,311,4.0,9.0,93,0.00,,,0.05,WeatherCatV1.15B25,2013-06-01 15:08:00,
2013-06-01 10:13:00,56.8,54.2,29.68,NNW,329,1.0,12.0,91,0.00,,,0.05,WeatherCatV1.15B25,2013-06-01 15:13:00,
2013-06-01 10:18:00,56.8,54.2,29.68,WNW,295,6.0,11.0,91,0.00,,,0.05,WeatherCatV1.15B25,2013-06-01 15:18:00,
2013-06-01 10:23:00,56.8,53.9,29.68,NNW,341,7.0,8.0,90,0.00,,,0.05,WeatherCatV1.15B25,2013-06-01 15:23:00,
2013-06-01 10:28:00,56.8,53.9,29.68,West,272,3.0,9.0,90,0.00,,,0.05,WeatherCatV1.15B25,2013-06-01 15:28:00,
2013-06-01 10:33:00,56.5,53.3,29.69,NW,319,8.0,11.0,89,0.00,,,0.05,WeatherCatV1.15B25,2013-06-01 15:33:00,
2013-06-01 10:38:00,56.2,53.3,29.69,NW,326,6.0,11.0,90,0.00,,,0.05,WeatherCatV1.15B25,2013-06-01 15:38:00,
2013-06-01 10:43:00,55.9,53.0,29.69,NW,325,5.0,15.0,90,0.00,,,0.05,WeatherCatV1.15B25,2013-06-01 15:43:00,
2013-06-01 10:48:00,56.0,53.1,29.70,WNW,295,3.0,7.0,90,0.00,,,0.05,WeatherCatV1.15B25,2013-06-01 15:48:00,
2013-06-01 10:53:00,56.0,53.1,29.70,WNW,301,3.0,9.0,90,0.00,,,0.05,WeatherCatV1.15B25,2013-06-01 15:53:00,
2013-06-01 10:58:00,55.8,52.9,29.70,North,10,3.0,9.0,90,0.00,,,0.05,WeatherCatV1.15B25,2013-06-01 15:58:00,
2013-06-01 11:03:00,55.7,52.5,29.71,WNW,282,11.0,14.0,89,0.00,,,0.05,WeatherCatV1.15B25,2013-06-01 16:03:00,
2013-06-01 11:08:00,55.6,52.7,29.71,West,268,8.0,9.0,90,0.00,,,0.05,WeatherCatV1.15B25,2013-06-01 16:08:00,
2013-06-01 11:13:00,55.7,52.5,29.71,WNW,288,8.0,16.0,89,0.00,,,0.05,WeatherCatV1.15B25,2013-06-01 16:13:00,
2013-06-01 11:18:00,55.8,52.9,29.71,NNW,335,4.0,8.0,90,0.00,,,0.05,WeatherCatV1.15B25,2013-06-01 16:18:00,
2013-06-01 11:23:00,56.1,53.2,29.72,NW,307,7.0,9.0,90,0.00,,,0.05,WeatherCatV1.15B25,2013-06-01 16:23:00,
2013-06-01 11:28:00,55.9,53.0,29.72,WNW,284,6.0,11.0,90,0.00,,,0.05,WeatherCatV1.15B25,2013-06-01 16:28:00,
2013-06-01 11:33:00,55.6,52.7,29.72,NNW,334,3.0,6.0,90,0.00,,,0.05,WeatherCatV1.15B25,2013-06-01 16:33:00,
2013-06-01 11:38:00,55.5,52.9,29.73,WNW,288,4.0,9.0,91,0.00,,,0.05,WeatherCatV1.15B25,2013-06-01 16:38:00,
2013-06-01 11:43:00,55.4,52.5,29.73,NW,321,4.0,8.0,90,0.00,,,0.05,WeatherCatV1.15B25,2013-06-01 16:43:00,
2013-06-01 11:48:00,55.1,52.2,29.74,West,276,1.0,9.0,90,0.00,,,0.05,WeatherCatV1.15B25,2013-06-01 16:48:00,
2013-06-01 11:53:00,55.1,52.2,29.74,NW,317,13.0,13.0,90,0.00,,,0.05,WeatherCatV1.15B25,2013-06-01 16:53:00,
2013-06-01 11:58:00,55.1,51.9,29.74,WNW,298,5.0,13.0,89,0.00,,,0.05,WeatherCatV1.15B25,2013-06-01 16:58:00,
2013-06-01 12:03:00,55.2,52.0,29.74,NNW,343,7.0,10.0,89,0.00,,,0.05,WeatherCatV1.15B25,2013-06-01 17:03:00,
2013-06-01 12:08:00,55.4,51.9,29.74,NW,326,8.0,10.0,88,0.00,,,0.05,WeatherCatV1.15B25,2013-06-01 17:08:00,
2013-06-01 12:13:00,55.7,51.9,29.75,NNW,337,6.0,10.0,87,0.00,,,0.05,WeatherCatV1.15B25,2013-06-01 17:13:00,
2013-06-01 12:18:00,56.0,51.9,29.75,North,0,4.0,9.0,86,0.00,,,0.05,WeatherCatV1.15B25,2013-06-01 17:18:00,
2013-06-01 12:23:00,56.2,51.7,29.75,NW,326,6.0,12.0,85,0.00,,,0.05,WeatherCatV1.15B25,2013-06-01 17:23:00,
2013-06-01 12:28:00,56.0,51.6,29.76,NW,326,7.0,14.0,85,0.00,,,0.05,WeatherCatV1.15B25,2013-06-01 17:28:00,
2013-06-01 12:33:00,55.5,51.4,29.76,North,351,4.0,12.0,86,0.00,,,0.05,WeatherCatV1.15B25,2013-06-01 17:33:00,
2013-06-01 12:38:00,55.4,51.3,29.76,WNW,298,5.0,12.0,86,0.00,,,0.05,WeatherCatV1.15B25,2013-06-01 17:38:00,
2013-06-01 12:43:00,55.4,51.3,29.76,West,264,6.0,8.0,86,0.00,,,0.05,WeatherCatV1.15B25,2013-06-01 17:43:00,
2013-06-01 12:48:00,55.5,51.7,29.77,North,0,4.0,7.0,87,0.00,,,0.05,WeatherCatV1.15B25,2013-06-01 17:48:00,
2013-06-01 12:53:00,55.3,51.5,29.78,North,0,5.0,6.0,87,0.00,,,0.05,WeatherCatV1.15B25,2013-06-01 17:53:00,
2013-06-01 12:58:00,55.1,51.0,29.78,WNW,282,4.0,12.0,86,0.00,,,0.05,WeatherCatV1.15B25,2013-06-01 17:58:00,
2013-06-01 13:03:00,54.8,51.0,29.78,NW,305,5.0,9.0,87,0.00,,,0.05,WeatherCatV1.15B25,2013-06-01 18:03:00,
2013-06-01 13:08:00,54.6,50.8,29.78,North,356,5.0,12.0,87,0.00,,,0.05,WeatherCatV1.15B25,2013-06-01 18:08:00,
2013-06-01 13:13:00,54.6,50.8,29.78,NW,321,6.0,16.0,87,0.00,,,0.05,WeatherCatV1.15B25,2013-06-01 18:13:00,
2013-06-01 13:18:00,54.5,50.7,29.79,NW,308,6.0,13.0,87,0.00,,,0.05,WeatherCatV1.15B25,2013-06-01 18:18:00,
2013-06-01 13:23:00,54.4,50.6,29.79,NW,321,4.0,11.0,87,0.00,,,0.05,WeatherCatV1.15B25,2013-06-01 18:23:00,
2013-06-01 13:28:00,54.3,50.5,29.79,NW,307,4.0,9.0,87,0.00,,,0.05,WeatherCatV1.15B25,2013-06-01 18:28:00,
2013-06-01 13:33:00,54.4,50.3,29.80,NNW,327,7.0,8.0,86,0.00,,,0.05,WeatherCatV1.15B25,2013-06-01 18:33:00,
2013-06-01 13:38:00,54.6,50.5,29.80,NW,309,3.0,8.0,86,0.00,,,0.05,WeatherCatV1.15B25,2013-06-01 18:38:00,
2013-06-01 13:43:00,54.4,50.6,29.80,WNW,296,4.0,6.0,87,0.00,,,0.05,WeatherCatV1.15B25,2013-06-01 18:43:00,
2013-06-01 13:48:00,54.0,50.5,29.80,NNW,333,3.0,6.0,88,0.00,,,0.05,WeatherCatV1.15B25,2013-06-01 18:48:00,
2013-06-01 13:53:00,53.9,50.4,29.81,NNE,24,3.0,11.0,88,0.00,,,0.05,WeatherCatV1.15B25,2013-06-01 18:53:00,
2013-06-01 13:58:00,54.0,50.5,29.81,NNW,340,7.0,8.0,88,0.00,,,0.05,WeatherCatV1.15B25,2013-06-01 18:58:00,
2013-06-01 14:03:00,53.9,50.1,29.81,NNW,336,4.0,9.0,87,0.00,,,0.05,WeatherCatV1.15B25,2013-06-01 19:03:00,
2013-06-01 14:08:00,53.8,50.0,29.81,WNW,284,4.0,9.0,87,0.00,,,0.05,WeatherCatV1.15B25,2013-06-01 19:08:00,
2013-06-01 14:13:00,53.9,50.1,29.81,NW,309,2.0,8.0,87,0.00,,,0.05,WeatherCatV1.15B25,2013-06-01 19:13:00,
2013-06-01 14:18:00,54.2,50.1,29.81,West,281,8.0,9.0,86,0.00,,,0.05,WeatherCatV1.15B25,2013-06-01 19:18:00,
2013-06-01 14:23:00,54.2,50.1,29.82,NNW,328,3.0,16.0,86,0.00,,,0.05,WeatherCatV1.15B25,2013-06-01 19:23:00,
2013-06-01 14:28:00,54.0,49.9,29.82,West,275,2.0,7.0,86,0.00,,,0.05,WeatherCatV1.15B25,2013-06-01 19:28:00,
2013-06-01 14:33:00,54.1,50.3,29.83,NW,311,6.0,9.0,87,0.00,,,0.05,WeatherCatV1.15B25,2013-06-01 19:33:00,
2013-06-01 14:38:00,53.8,49.7,29.83,North,5,3.0,8.0,86,0.00,,,0.05,WeatherCatV1.15B25,2013-06-01 19:38:00,
2013-06-01 14:44:00,53.6,49.5,29.83,NNW,335,6.0,10.0,86,0.00,,,0.05,WeatherCatV1.15B25,2013-06-01 19:44:00,
2013-06-01 14:49:00,53.5,49.4,29.83,NW,308,5.0,14.0,86,0.00,,,0.05,WeatherCatV1.15B25,2013-06-01 19:49:00,
2013-06-01 14:54:00,53.4,49.6,29.84,NNW,330,5.0,12.0,87,0.00,,,0.05,WeatherCatV1.15B25,2013-06-01 19:54:00,
2013-06-01 14:59:00,53.2,49.4,29.84,NW,305,4.0,12.0,87,0.00,,,0.05,WeatherCatV1.15B25,2013-06-01 19:59:00,
2013-06-01 15:04:00,53.3,49.5,29.84,WNW,286,7.0,7.0,87,0.00,,,0.05,WeatherCatV1.15B25,2013-06-01 20:04:00,
2013-06-01 15:09:00,53.3,49.5,29.84,North,355,11.0,11.0,87,0.00,,,0.05,WeatherCatV1.15B25,2013-06-01 20:09:00,
2013-06-01 15:14:00,53.4,50.2,29.84,NNW,329,1.0,5.0,89,0.00,,,0.05,WeatherCatV1.15B25,2013-06-01 20:14:00,
2013-06-01 15:19:00,53.5,50.0,29.84,West,271,5.0,10.0,88,0.00,,,0.05,WeatherCatV1.15B25,2013-06-01 20:19:00,
2013-06-01 15:24:00,53.6,49.8,29.84,NNE,28,6.0,6.0,87,0.00,,,0.05,WeatherCatV1.15B25,2013-06-01 20:24:00,
2013-06-01 15:29:00,53.6,49.8,29.84,NW,320,5.0,7.0,87,0.00,,,0.05,WeatherCatV1.15B25,2013-06-01 20:29:00,
2013-06-01 15:34:00,53.7,49.6,29.84,NNW,340,6.0,11.0,86,0.00,,,0.05,WeatherCatV1.15B25,2013-06-01 20:34:00,
2013-06-01 15:39:00,53.5,49.4,29.84,NW,310,4.0,11.0,86,0.00,,,0.05,WeatherCatV1.15B25,2013-06-01 20:39:00,
2013-06-01 15:44:00,53.8,49.7,29.84,WNW,298,6.0,13.0,86,0.00,,,0.05,WeatherCatV1.15B25,2013-06-01 20:44:00,
2013-06-01 15:49:00,54.4,50.0,29.85,WNW,299,8.0,11.0,85,0.00,,,0.05,WeatherCatV1.15B25,2013-06-01 20:49:00,
2013-06-01 15:54:00,54.5,49.8,29.85,NW,326,8.0,8.0,84,0.00,,,0.05,WeatherCatV1.15B25,2013-06-01 20:54:00,
2013-06-01 15:59:00,54.2,49.8,29.85,NNW,329,2.0,7.0,85,0.00,,,0.05,WeatherCatV1.15B25,2013-06-01 20:59:00,
2013-06-01 16:04:00,54.1,49.4,29.85,WNW,295,4.0,9.0,84,0.00,,,0.05,WeatherCatV1.15B25,2013-06-01 21:04:00,
2013-06-01 16:09:00,54.1,49.7,29.86,NW,304,4.0,13.0,85,0.00,,,0.05,WeatherCatV1.15B25,2013-06-01 21:09:00,
2013-06-01 16:14:00,54.3,49.9,29.86,WNW,291,6.0,6.0,85,0.00,,,0.05,WeatherCatV1.15B25,2013-06-01 21:14:00,
2013-06-01 16:19:00,54.5,49.4,29.86,NW,323,8.0,12.0,83,0.00,,,0.05,WeatherCatV1.15B25,2013-06-01 21:19:00,
2013-06-01 16:24:00,53.7,49.0,29.86,NNW,336,6.0,13.0,84,0.00,,,0.05,WeatherCatV1.15B25,2013-06-01 21:24:00,
2013-06-01 16:29:00,53.0,48.6,29.87,NW,309,11.0,11.0,85,0.00,,,0.05,WeatherCatV1.15B25,2013-06-01 21:29:00,
2013-06-01 16:34:00,53.1,49.0,29.87,WNW,299,3.0,6.0,86,0.00,,,0.05,WeatherCatV1.15B25,2013-06-01 21:34:00,
2013-06-01 16:39:00,53.5,49.1,29.87,NW,317,6.0,15.0,85,0.00,,,0.05,WeatherCatV1.15B25,2013-06-01 21:39:00,
2013-06-01 16:44:00,53.6,48.9,29.87,WNW,288,4.0,8.0,84,0.00,,,0.05,WeatherCatV1.15B25,2013-06-01 21:44:00,
2013-06-01 16:49:00,53.4,49.0,29.87,NNW,334,6.0,8.0,85,0.00,,,0.05,WeatherCatV1.15B25,2013-06-01 21:49:00,
2013-06-01 16:54:00,53.5,48.8,29.87,NNW,333,9.0,9.0,84,0.00,,,0.05,WeatherCatV1.15B25,2013-06-01 21:54:00,
2013-06-01 16:59:00,53.5,48.8,29.88,NW,321,4.0,6.0,84,0.00,,,0.05,WeatherCatV1.15B25,2013-06-01 21:59:00,
2013-06-01 17:04:00,53.4,48.7,29.88,NNW,328,4.0,11.0,84,0.00,,,0.05,WeatherCatV1.15B25,2013-06-01 22:04:00,
2013-06-01 17:09:00,53.4,49.0,29.88,NW,309,3.0,4.0,85,0.00,,,0.05,WeatherCatV1.15B25,2013-06-01 22:09:00,
2013-06-01 17:14:00,53.5,48.5,29.89,NW,324,6.0,11.0,83,0.00,,,0.05,WeatherCatV1.15B25,2013-06-01 22:14:00,
2013-06-01 17:19:00,53.5,48.5,29.88,NNW,329,4.0,10.0,83,0.00,,,0.05,WeatherCatV1.15B25,2013-06-01 22:19:00,
2013-06-01 17:24:00,53.7,48.3,29.89,NW,322,5.0,8.0,82,0.00,,,0.05,WeatherCatV1.15B25,2013-06-01 22:24:00,
2013-06-01 17:29:00,53.8,48.4,29.88,WNW,300,6.0,12.0,82,0.00,,,0.05,WeatherCatV1.15B25,2013-06-01 22:29:00,
2013-06-01 17:34:00,53.9,48.5,29.89,West,277,12.0,12.0,82,0.00,,,0.05,WeatherCatV1.15B25,2013-06-01 22:34:00,
2013-06-01 17:39:00,53.9,48.2,29.89,WNW,284,4.0,9.0,81,0.00,,,0.05,WeatherCatV1.15B25,2013-06-01 22:39:00,
2013-06-01 17:44:00,53.8,48.4,29.89,NNW,347,3.0,8.0,82,0.00,,,0.05,WeatherCatV1.15B25,2013-06-01 22:44:00,
2013-06-01 17:49:00,53.8,48.1,29.89,NW,307,7.0,10.0,81,0.00,,,0.05,WeatherCatV1.15B25,2013-06-01 22:49:00,
2013-06-01 17:54:00,53.9,47.9,29.89,NW,326,2.0,10.0,80,0.00,,,0.05,WeatherCatV1.15B25,2013-06-01 22:54:00,
2013-06-01 17:59:00,54.0,48.0,29.90,NW,320,4.0,12.0,80,0.00,,,0.05,WeatherCatV1.15B25,2013-06-01 22:59:00,
2013-06-01 18:04:00,53.9,47.9,29.90,NNW,338,6.0,10.0,80,0.00,,,0.05,WeatherCatV1.15B25,2013-06-01 23:04:00,
2013-06-01 18:09:00,53.8,48.1,29.90,WSW,254,7.0,12.0,81,0.00,,,0.05,WeatherCatV1.15B25,2013-06-01 23:09:00,
2013-06-01 18:14:00,54.0,48.3,29.90,NNW,334,9.0,9.0,81,0.00,,,0.05,WeatherCatV1.15B25,2013-06-01 23:14:00,
2013-06-01 18:19:00,54.4,47.7,29.90,WNW,291,5.0,16.0,78,0.00,,,0.05,WeatherCatV1.15B25,2013-06-01 23:19:00,
2013-06-01 18:24:00,54.5,47.8,29.90,NW,315,7.0,14.0,78,0.00,,,0.05,WeatherCatV1.15B25,2013-06-01 23:24:00,
2013-06-01 18:29:00,54.6,48.2,29.90,NW,316,7.0,7.0,79,0.00,,,0.05,WeatherCatV1.15B25,2013-06-01 23:29:00,
2013-06-01 18:34:00,54.4,48.0,29.90,North,353,5.0,11.0,79,0.00,,,0.05,WeatherCatV1.15B25,2013-06-01 23:34:00,
2013-06-01 18:39:00,54.2,48.2,29.90,NW,311,4.0,7.0,80,0.00,,,0.05,WeatherCatV1.15B25,2013-06-01 23:39:00,
2013-06-01 18:44:00,54.1,48.1,29.91,NW,304,3.0,10.0,80,0.00,,,0.05,WeatherCatV1.15B25,2013-06-01 23:44:00,
2013-06-01 18:49:00,54.0,48.3,29.90,NNW,345,7.0,9.0,81,0.00,,,0.05,WeatherCatV1.15B25,2013-06-01 23:49:00,
2013-06-01 18:54:00,53.5,48.5,29.91,North,0,10.0,12.0,83,0.00,,,0.05,WeatherCatV1.15B25,2013-06-01 23:54:00,
2013-06-01 18:59:00,53.3,48.6,29.91,NW,318,4.0,12.0,84,0.00,,,0.05,WeatherCatV1.15B25,2013-06-01 23:59:00,
2013-06-01 19:04:00,53.5,48.1,29.91,WNW,301,3.0,13.0,82,0.00,,,0.05,WeatherCatV1.15B25,2013-06-02 00:04:00,
2013-06-01 19:09:00,53.6,47.9,29.92,West,262,3.0,5.0,81,0.00,,,0.05,WeatherCatV1.15B25,2013-06-02 00:09:00,
2013-06-01 19:14:00,53.5,47.8,29.92,NW,318,9.0,11.0,81,0.00,,,0.05,WeatherCatV1.15B25,2013-06-02 00:14:00,
2013-06-01 19:19:00,53.5,48.1,29.92,NW,305,9.0,11.0,82,0.00,,,0.05,WeatherCatV1.15B25,2013-06-02 00:19:00,
2013-06-01 19:24:00,53.6,48.2,29.93,WNW,295,1.0,6.0,82,0.00,,,0.05,WeatherCatV1.15B25,2013-06-02 00:24:00,
2013-06-01 19:29:00,53.6,48.6,29.93,WNW,302,5.0,10.0,83,0.00,,,0.05,WeatherCatV1.15B25,2013-06-02 00:29:00,
2013-06-01 19:34:00,53.2,48.5,29.94,NW,312,4.0,6.0,84,0.00,,,0.05,WeatherCatV1.15B25,2013-06-02 00:34:00,
2013-06-01 19:39:00,53.0,48.9,29.94,NNW,334,5.0,9.0,86,0.00,,,0.05,WeatherCatV1.15B25,2013-06-02 00:39:00,
2013-06-01 19:44:00,52.9,48.5,29.94,WNW,286,2.0,9.0,85,0.00,,,0.05,WeatherCatV1.15B25,2013-06-02 00:44:00,
2013-06-01 19:49:00,53.0,48.3,29.94,NW,318,6.0,8.0,84,0.00,,,0.05,WeatherCatV1.15B25,2013-06-02 00:49:00,
2013-06-01 19:54:00,53.1,48.4,29.94,WNW,296,7.0,13.0,84,0.00,,,0.05,WeatherCatV1.15B25,2013-06-02 00:54:00,
2013-06-01 19:59:00,52.9,48.8,29.94,WNW,303,4.0,8.0,86,0.00,,,0.05,WeatherCatV1.15B25,2013-06-02 00:59:00,
2013-06-01 20:04:00,52.3,49.2,29.94,North,10,8.0,8.0,89,0.00,,,0.05,WeatherCatV1.15B25,2013-06-02 01:04:00,
2013-06-01 20:09:00,51.9,49.4,29.94,West,272,6.0,9.0,91,0.00,,,0.05,WeatherCatV1.15B25,2013-06-02 01:09:00,
2013-06-01 20:14:00,51.6,48.8,29.94,NW,314,8.0,9.0,90,0.00,,,0.05,WeatherCatV1.15B25,2013-06-02 01:14:00,
2013-06-01 20:19:00,51.4,48.6,29.94,NW,307,3.0,9.0,90,0.00,,,0.05,WeatherCatV1.15B25,2013-06-02 01:19:00,
2013-06-01 20:24:00,51.5,48.4,29.94,North,354,5.0,6.0,89,0.00,,,0.05,WeatherCatV1.15B25,2013-06-02 01:24:00,
2013-06-01 20:29:00,51.7,48.3,29.94,WNW,303,2.0,11.0,88,0.00,,,0.05,WeatherCatV1.15B25,2013-06-02 01:29:00,
2013-06-01 20:34:00,51.9,47.5,29.94,NNW,338,15.0,15.0,85,0.00,,,0.05,WeatherCatV1.15B25,2013-06-02 01:34:00,
2013-06-01 20:39:00,52.1,47.4,29.94,NW,320,6.0,13.0,84,0.00,,,0.05,WeatherCatV1.15B25,2013-06-02 01:39:00,
2013-06-01 20:44:00,52.2,47.5,29.94,North,349,9.0,10.0,84,0.00,,,0.05,WeatherCatV1.15B25,2013-06-02 01:44:00,
2013-06-01 20:49:00,52.3,47.3,29.95,NW,324,5.0,5.0,83,0.00,,,0.05,WeatherCatV1.15B25,2013-06-02 01:49:00,
2013-06-01 20:54:00,52.3,47.3,29.95,NW,307,0.0,11.0,83,0.00,,,0.05,WeatherCatV1.15B25,2013-06-02 01:54:00,
2013-06-01 20:59:00,52.4,47.4,29.95,WNW,296,4.0,4.0,83,0.00,,,0.05,WeatherCatV1.15B25,2013-06-02 01:59:00,
2013-06-01 21:04:00,52.4,47.1,29.96,WNW,289,6.0,6.0,82,0.00,,,0.05,WeatherCatV1.15B25,2013-06-02 02:04:00,
2013-06-01 21:09:00,52.4,47.4,29.96,NW,324,3.0,7.0,83,0.00,,,0.05,WeatherCatV1.15B25,2013-06-02 02:09:00,
2013-06-01 21:14:00,52.2,47.5,29.96,NW,311,3.0,9.0,84,0.00,,,0.05,WeatherCatV1.15B25,2013-06-02 02:14:00,
2013-06-01 21:19:00,52.0,47.6,29.97,NNW,331,3.0,8.0,85,0.00,,,0.05,WeatherCatV1.15B25,2013-06-02 02:19:00,
2013-06-01 21:24:00,51.9,47.2,29.97,NW,305,3.0,4.0,84,0.00,,,0.05,WeatherCatV1.15B25,2013-06-02 02:24:00,
2013-06-01 21:29:00,52.0,47.0,29.98,NE,39,4.0,7.0,83,0.00,,,0.05,WeatherCatV1.15B25,2013-06-02 02:29:00,
2013-06-01 21:34:00,52.1,46.8,29.98,WSW,255,3.0,6.0,82,0.00,,,0.05,WeatherCatV1.15B25,2013-06-02 02:34:00,
2013-06-01 21:39:00,52.3,46.6,29.99,WNW,283,4.0,9.0,81,0.00,,,0.05,WeatherCatV1.15B25,2013-06-02 02:39:00,
2013-06-01 21:44:00,52.3,46.3,29.99,WNW,299,8.0,8.0,80,0.00,,,0.05,WeatherCatV1.15B25,2013-06-02 02:44:00,
2013-06-01 21:49:00,52.4,46.4,29.99,NW,324,5.0,7.0,80,0.00,,,0.05,WeatherCatV1.15B25,2013-06-02 02:49:00,
2013-06-01 21:54:00,52.4,46.4,30.00,NNW,330,1.0,8.0,80,0.00,,,0.05,WeatherCatV1.15B25,2013-06-02 02:54:00,
2013-06-01 21:59:00,52.4,46.1,30.00,NW,307,6.0,8.0,79,0.00,,,0.05,WeatherCatV1.15B25,2013-06-02 02:59:00,
2013-06-01 22:04:00,52.4,46.1,30.00,WNW,284,3.0,6.0,79,0.00,,,0.05,WeatherCatV1.15B25,2013-06-02 03:04:00,
2013-06-01 22:09:00,52.4,45.7,30.00,NNW,339,4.0,7.0,78,0.00,,,0.05,WeatherCatV1.15B25,2013-06-02 03:09:00,
2013-06-01 22:14:00,52.4,45.7,30.01,WNW,299,7.0,7.0,78,0.00,,,0.05,WeatherCatV1.15B25,2013-06-02 03:14:00,
2013-06-01 22:19:00,52.4,45.7,30.01,NW,319,3.0,7.0,78,0.00,,,0.05,WeatherCatV1.15B25,2013-06-02 03:19:00,
2013-06-01 22:24:00,52.4,45.7,30.01,NNW,340,7.0,9.0,78,0.00,,,0.05,WeatherCatV1.15B25,2013-06-02 03:24:00,
2013-06-01 22:29:00,52.4,45.7,30.01,WNW,292,1.0,6.0,78,0.00,,,0.05,WeatherCatV1.15B25,2013-06-02 03:29:00,
2013-06-01 22:34:00,52.4,45.4,30.01,WNW,302,2.0,14.0,77,0.00,,,0.05,WeatherCatV1.15B25,2013-06-02 03:34:00,
2013-06-01 22:39:00,52.3,45.3,30.01,NW,311,4.0,7.0,77,0.00,,,0.05,WeatherCatV1.15B25,2013-06-02 03:39:00,
2013-06-01 22:44:00,52.3,45.6,30.01,NW,317,3.0,9.0,78,0.00,,,0.05,WeatherCatV1.15B25,2013-06-02 03:44:00,
2013-06-01 22:49:00,52.3,45.3,30.01,NNW,328,9.0,11.0,77,0.00,,,0.05,WeatherCatV1.15B25,2013-06-02 03:49:00,
2013-06-01 22:54:00,52.2,44.9,30.02,NW,315,1.0,8.0,76,0.00,,,0.05,WeatherCatV1.15B25,2013-06-02 03:54:00,
2013-06-01 22:59:00,52.2,44.9,30.01,NNW,343,7.0,8.0,76,0.00,,,0.05,WeatherCatV1.15B25,2013-06-02 03:59:00,
2013-06-01 23:01:00,52.2,44.9,30.01,NNW,328,3.0,11.0,76,0.00,,,0.05,WeatherCatV1.15B25,2013-06-02 04:01:00,
2013-06-01 23:06:00,52.1,44.8,30.01,NNW,328,3.0,9.0,76,0.00,,,0.05,WeatherCatV1.15B25,2013-06-02 04:06:00,
2013-06-01 23:11:00,52.1,44.8,30.02,NW,304,2.0,9.0,76,0.00,,,0.05,WeatherCatV1.15B25,2013-06-02 04:11:00,
2013-06-01 23:16:00,52.0,44.7,30.02,NNW,332,3.0,9.0,76,0.00,,,0.05,WeatherCatV1.15B25,2013-06-02 04:16:00,
2013-06-01 23:21:00,52.0,44.7,30.01,NW,324,1.0,6.0,76,0.00,,,0.05,WeatherCatV1.15B25,2013-06-02 04:21:00,
2013-06-01 23:26:00,52.0,44.7,30.01,North,353,5.0,11.0,76,0.00,,,0.05,WeatherCatV1.15B25,2013-06-02 04:26:00,
2013-06-01 23:31:00,51.9,44.6,30.01,WNW,291,3.0,6.0,76,0.00,,,0.05,WeatherCatV1.15B25,2013-06-02 04:31:00,
2013-06-01 23:36:00,51.9,44.6,30.01,NW,317,5.0,7.0,76,0.00,,,0.05,WeatherCatV1.15B25,2013-06-02 04:36:00,
2013-06-01 23:41:00,51.9,44.6,30.01,NW,323,2.0,7.0,76,0.00,,,0.05,WeatherCatV1.15B25,2013-06-02 04:41:00,
2013-06-01 23:46:00,51.9,44.9,30.01,NW,322,3.0,4.0,77,0.00,,,0.05,WeatherCatV1.15B25,2013-06-02 04:46:00,
2013-06-01 23:51:00,51.9,44.9,30.01,West,266,2.0,8.0,77,0.00,,,0.05,WeatherCatV1.15B25,2013-06-02 04:51:00,
2013-06-01 23:56:00,51.9,44.9,30.01,NNW,334,2.0,6.0,77,0.00,,,0.05,WeatherCatV1.15B25,2013-06-02 04:56:00,